Time,TemperatureF,DewpointF,PressureIn,WindDirection,WindDirectionDegrees,WindSpeedMPH,WindSpeedGustMPH,Humidity,HourlyPrecipIn,Conditions,Clouds,dailyrainin,SoftwareType,DateUTC
2013-04-09 00:00:00,64.6,52.6,29.45,WNW,293,21.0,23.7,65,2.60,,,2.28,WUHU216HW,2013-04-09 04:00:00,
2013-04-09 00:05:00,65.0,52.5,29.46,NW,315,16.8,23.0,64,2.60,,,0.16,WUHU216HW,2013-04-09 04:05:00,
2013-04-09 00:10:00,65.7,52.3,29.49,North,0,18.3,34.0,62,2.61,,,0.17,WUHU216HW,2013-04-09 04:10:00,
2013-04-09 00:15:00,63.7,50.4,29.50,NNW,338,11.4,34.0,62,2.61,,,0.17,WUHU216HW,2013-04-09 04:15:00,
2013-04-09 00:20:00,60.5,48.7,29.50,NNW,338,14.8,26.2,65,2.61,,,0.17,WUHU216HW,2013-04-09 04:20:00,
2013-04-09 00:25:00,58.7,47.4,29.50,NW,315,15.0,20.1,66,2.61,,,0.17,WUHU216HW,2013-04-09 04:25:00,
2013-04-09 00:30:00,57.6,47.1,29.51,SW,225,8.9,17.9,68,2.61,,,0.17,WUHU216HW,2013-04-09 04:30:00,
2013-04-09 00:35:00,57.2,47.2,29.51,NW,315,20.8,20.8,69,2.61,,,0.17,WUHU216HW,2013-04-09 04:35:00,
2013-04-09 00:40:00,56.9,47.2,29.51,WNW,293,9.8,20.8,70,2.61,,,0.17,WUHU216HW,2013-04-09 04:40:00,
2013-04-09 00:45:00,56.9,47.5,29.52,NW,315,14.1,17.2,71,2.60,,,0.17,WUHU216HW,2013-04-09 04:45:00,
2013-04-09 00:50:00,56.9,47.5,29.52,WNW,293,16.6,17.2,71,2.60,,,0.17,WUHU216HW,2013-04-09 04:50:00,
2013-04-09 00:55:00,56.5,47.3,29.53,NW,315,18.6,18.6,71,2.60,,,0.17,WUHU216HW,2013-04-09 04:55:00,
2013-04-09 01:00:00,56.0,46.7,29.53,NW,315,11.4,21.5,71,2.60,,,0.33,WUHU216HW,2013-04-09 05:00:00,
2013-04-09 01:05:00,55.4,46.6,29.54,NW,315,12.1,21.5,72,2.60,,,0.33,WUHU216HW,2013-04-09 05:05:00,
2013-04-09 01:10:00,54.9,46.1,29.54,West,270,7.8,17.4,72,2.59,,,0.33,WUHU216HW,2013-04-09 05:10:00,
2013-04-09 01:15:00,54.4,45.6,29.55,NNW,338,6.9,13.2,72,2.59,,,0.33,WUHU216HW,2013-04-09 05:15:00,
2013-04-09 01:20:00,53.6,45.2,29.55,NW,315,13.9,16.3,73,2.59,,,0.33,WUHU216HW,2013-04-09 05:20:00,
2013-04-09 01:25:00,52.9,44.2,29.56,NW,315,15.7,21.0,72,2.59,,,0.33,WUHU216HW,2013-04-09 05:25:00,
2013-04-09 01:30:00,52.0,44.0,29.56,NW,315,16.1,21.0,74,2.59,,,0.33,WUHU216HW,2013-04-09 05:30:00,
2013-04-09 01:35:00,51.3,43.3,29.57,NW,315,12.3,16.6,74,2.59,,,0.33,WUHU216HW,2013-04-09 05:35:00,
2013-04-09 01:40:00,50.6,42.6,29.57,North,0,6.5,16.6,74,2.59,,,0.33,WUHU216HW,2013-04-09 05:40:00,
2013-04-09 01:45:00,50.0,42.4,29.58,NW,315,11.9,17.7,75,2.59,,,0.33,WUHU216HW,2013-04-09 05:45:00,
2013-04-09 01:50:00,49.7,42.0,29.58,WNW,293,7.6,17.7,75,2.59,,,0.33,WUHU216HW,2013-04-09 05:50:00,
2013-04-09 01:55:00,49.5,42.2,29.58,West,270,10.3,13.2,76,2.59,,,0.33,WUHU216HW,2013-04-09 05:55:00,
2013-04-09 02:00:00,49.3,42.0,29.58,NW,315,10.1,14.1,76,2.59,,,0.49,WUHU216HW,2013-04-09 06:00:00,
2013-04-09 02:05:00,49.0,42.0,29.59,West,270,8.3,14.1,77,2.59,,,0.49,WUHU216HW,2013-04-09 06:05:00,
2013-04-09 02:10:00,48.8,41.9,29.59,NW,315,10.7,12.8,77,2.59,,,0.49,WUHU216HW,2013-04-09 06:10:00,
2013-04-09 02:15:00,48.6,41.7,29.60,WNW,293,9.4,14.8,77,2.59,,,0.49,WUHU216HW,2013-04-09 06:15:00,
2013-04-09 02:20:00,48.2,41.3,29.60,NW,315,6.9,14.8,77,2.59,,,0.49,WUHU216HW,2013-04-09 06:20:00,
2013-04-09 02:25:00,48.1,41.1,29.60,WNW,293,9.8,12.8,77,2.59,,,0.49,WUHU216HW,2013-04-09 06:25:00,
2013-04-09 02:30:00,48.1,41.5,29.60,WNW,293,5.6,13.6,78,2.59,,,0.49,WUHU216HW,2013-04-09 06:30:00,
2013-04-09 02:35:00,47.9,41.3,29.60,WNW,293,9.8,13.6,78,2.59,,,0.49,WUHU216HW,2013-04-09 06:35:00,
2013-04-09 02:40:00,47.9,41.3,29.61,NW,315,7.6,12.1,78,2.59,,,0.49,WUHU216HW,2013-04-09 06:40:00,
2013-04-09 02:45:00,47.7,41.1,29.61,WSW,248,9.2,13.0,78,2.59,,,0.49,WUHU216HW,2013-04-09 06:45:00,
2013-04-09 02:50:00,47.5,41.3,29.62,NW,315,8.5,13.0,79,2.59,,,0.49,WUHU216HW,2013-04-09 06:50:00,
2013-04-09 02:56:00,47.7,41.5,29.62,WNW,293,11.2,12.5,79,2.59,,,0.49,WUHU216HW,2013-04-09 06:56:00,
2013-04-09 03:01:00,47.7,41.9,29.62,West,270,11.2,12.1,80,2.59,,,0.65,WUHU216HW,2013-04-09 07:01:00,
2013-04-09 03:06:00,47.7,41.9,29.62,NW,315,8.3,13.2,80,2.59,,,0.65,WUHU216HW,2013-04-09 07:06:00,
2013-04-09 03:11:00,47.7,41.9,29.62,NNW,338,10.1,13.9,80,2.59,,,0.65,WUHU216HW,2013-04-09 07:11:00,
2013-04-09 03:16:00,47.7,41.9,29.62,WNW,293,11.2,13.9,80,2.59,,,0.65,WUHU216HW,2013-04-09 07:16:00,
2013-04-09 03:21:00,47.7,41.9,29.63,NW,315,8.7,12.8,80,2.59,,,0.65,WUHU216HW,2013-04-09 07:21:00,
2013-04-09 03:26:00,47.9,41.9,29.63,West,270,10.5,13.4,80,2.59,,,0.65,WUHU216HW,2013-04-09 07:26:00,
2013-04-09 03:31:00,47.7,41.9,29.63,NW,315,7.6,15.0,80,2.59,,,0.65,WUHU216HW,2013-04-09 07:31:00,
2013-04-09 03:36:00,47.7,41.9,29.63,NW,315,5.6,16.8,80,2.59,,,0.65,WUHU216HW,2013-04-09 07:36:00,
2013-04-09 03:41:00,47.5,41.7,29.63,WNW,293,7.6,16.8,80,2.59,,,0.65,WUHU216HW,2013-04-09 07:41:00,
2013-04-09 03:46:00,47.5,41.7,29.64,NNW,338,8.5,15.7,80,2.59,,,0.65,WUHU216HW,2013-04-09 07:46:00,
2013-04-09 03:51:00,47.5,41.9,29.64,NW,315,12.8,18.6,81,2.59,,,0.65,WUHU216HW,2013-04-09 07:51:00,
2013-04-09 03:56:00,47.5,41.9,29.64,NW,315,15.4,18.6,81,2.59,,,0.65,WUHU216HW,2013-04-09 07:56:00,
2013-04-09 04:01:00,47.5,41.9,29.64,NW,315,15.7,19.2,81,2.59,,,0.81,WUHU216HW,2013-04-09 08:01:00,
2013-04-09 04:06:00,47.5,41.9,29.65,West,270,13.0,21.7,81,2.59,,,0.81,WUHU216HW,2013-04-09 08:06:00,
2013-04-09 04:11:00,47.3,41.8,29.65,NNW,338,15.0,21.7,81,2.59,,,0.81,WUHU216HW,2013-04-09 08:11:00,
2013-04-09 04:16:00,47.3,41.8,29.65,NW,315,10.3,21.5,81,2.59,,,0.81,WUHU216HW,2013-04-09 08:16:00,
2013-04-09 04:21:00,47.2,41.7,29.65,NW,315,7.6,19.2,81,2.59,,,0.81,WUHU216HW,2013-04-09 08:21:00,
2013-04-09 04:27:00,47.2,41.7,29.66,NW,315,13.4,15.9,81,2.59,,,0.81,WUHU216HW,2013-04-09 08:27:00,
2013-04-09 04:32:00,47.2,41.7,29.66,West,270,11.0,15.7,81,2.59,,,0.81,WUHU216HW,2013-04-09 08:32:00,
2013-04-09 04:37:00,47.0,41.1,29.67,WNW,293,6.9,14.5,80,2.59,,,0.81,WUHU216HW,2013-04-09 08:37:00,
2013-04-09 04:42:00,47.0,41.5,29.67,WNW,293,13.2,16.6,81,2.59,,,0.81,WUHU216HW,2013-04-09 08:42:00,
2013-04-09 04:46:00,46.8,41.3,29.67,NW,315,14.8,20.1,81,2.59,,,0.81,WUHU216HW,2013-04-09 08:46:00,
2013-04-09 04:52:00,46.6,41.1,29.67,NW,315,13.6,20.1,81,2.59,,,0.81,WUHU216HW,2013-04-09 08:52:00,
2013-04-09 04:56:00,46.6,41.1,29.68,West,270,16.6,18.1,81,2.59,,,0.81,WUHU216HW,2013-04-09 08:56:00,
2013-04-09 05:02:00,46.4,41.0,29.68,West,270,12.3,16.8,81,2.59,,,0.98,WUHU216HW,2013-04-09 09:02:00,
2013-04-09 05:07:00,46.4,41.0,29.69,West,270,9.2,16.8,81,2.59,,,0.98,WUHU216HW,2013-04-09 09:07:00,
2013-04-09 05:12:00,46.3,40.8,29.69,WSW,248,9.2,15.9,81,2.59,,,0.98,WUHU216HW,2013-04-09 09:12:00,
2013-04-09 05:17:00,46.1,40.6,29.70,WNW,293,12.5,13.2,81,2.59,,,0.98,WUHU216HW,2013-04-09 09:17:00,
2013-04-09 05:22:00,46.1,40.6,29.70,NNW,338,10.1,13.2,81,2.59,,,0.98,WUHU216HW,2013-04-09 09:22:00,
2013-04-09 05:27:00,45.9,40.4,29.70,WNW,293,5.4,16.6,81,2.59,,,0.98,WUHU216HW,2013-04-09 09:27:00,
2013-04-09 05:32:00,45.7,40.2,29.70,NW,315,8.5,16.6,81,2.59,,,0.98,WUHU216HW,2013-04-09 09:32:00,
2013-04-09 05:37:00,45.5,40.1,29.71,NW,315,9.8,13.0,81,2.59,,,0.98,WUHU216HW,2013-04-09 09:37:00,
2013-04-09 05:42:00,45.5,40.1,29.71,WNW,293,5.6,13.0,81,2.59,,,0.98,WUHU216HW,2013-04-09 09:42:00,
2013-04-09 05:47:00,45.4,39.9,29.71,WNW,293,5.4,12.5,81,2.59,,,0.98,WUHU216HW,2013-04-09 09:47:00,
2013-04-09 05:52:00,45.2,39.7,29.72,West,270,9.8,12.1,81,2.59,,,0.98,WUHU216HW,2013-04-09 09:52:00,
2013-04-09 05:57:00,45.2,39.7,29.72,WNW,293,6.5,12.3,81,2.59,,,0.98,WUHU216HW,2013-04-09 09:57:00,
2013-04-09 06:02:00,45.0,39.5,29.73,NW,315,7.8,12.8,81,2.59,,,1.14,WUHU216HW,2013-04-09 10:02:00,
2013-04-09 06:07:00,45.0,39.5,29.73,NW,315,10.7,12.8,81,2.59,,,1.14,WUHU216HW,2013-04-09 10:07:00,
2013-04-09 06:12:00,45.0,39.5,29.73,NW,315,7.4,14.3,81,2.59,,,1.14,WUHU216HW,2013-04-09 10:12:00,
2013-04-09 06:17:00,45.0,39.5,29.73,NW,315,11.0,14.3,81,2.59,,,1.14,WUHU216HW,2013-04-09 10:17:00,
2013-04-09 06:22:00,44.8,39.3,29.74,NW,315,10.7,11.2,81,2.59,,,1.14,WUHU216HW,2013-04-09 10:22:00,
2013-04-09 06:27:00,44.8,39.3,29.75,NW,315,6.3,11.4,81,2.59,,,1.14,WUHU216HW,2013-04-09 10:27:00,
2013-04-09 06:32:00,44.6,39.2,29.75,NNW,338,9.4,11.4,81,2.59,,,1.14,WUHU216HW,2013-04-09 10:32:00,
2013-04-09 06:37:00,44.6,39.2,29.75,NW,315,7.2,12.8,81,2.59,,,1.14,WUHU216HW,2013-04-09 10:37:00,
2013-04-09 06:42:00,44.6,39.2,29.75,NW,315,4.9,12.8,81,2.59,,,1.14,WUHU216HW,2013-04-09 10:42:00,
2013-04-09 06:47:00,44.6,39.2,29.76,NW,315,4.3,9.2,81,2.59,,,1.14,WUHU216HW,2013-04-09 10:47:00,
2013-04-09 06:52:00,44.6,39.2,29.76,South,180,3.8,8.5,81,2.59,,,1.14,WUHU216HW,2013-04-09 10:52:00,
2013-04-09 06:57:00,44.6,39.2,29.77,NW,315,4.3,8.5,81,2.59,,,1.14,WUHU216HW,2013-04-09 10:57:00,
2013-04-09 07:02:00,44.6,39.2,29.77,NNW,338,4.9,7.6,81,2.59,,,1.30,WUHU216HW,2013-04-09 11:02:00,
2013-04-09 07:07:00,44.6,39.2,29.77,NW,315,5.4,8.3,81,2.59,,,1.30,WUHU216HW,2013-04-09 11:07:00,
2013-04-09 07:12:00,44.5,39.0,29.77,NNW,338,6.5,9.6,81,2.59,,,1.30,WUHU216HW,2013-04-09 11:12:00,
2013-04-09 07:17:00,44.5,39.0,29.77,NW,315,6.0,9.6,81,2.59,,,1.30,WUHU216HW,2013-04-09 11:17:00,
2013-04-09 07:22:00,44.3,38.8,29.78,NW,315,5.6,6.9,81,2.59,,,1.30,WUHU216HW,2013-04-09 11:22:00,
2013-04-09 07:27:00,44.3,38.8,29.77,West,270,6.5,6.9,81,2.59,,,1.30,WUHU216HW,2013-04-09 11:27:00,
2013-04-09 07:32:00,44.3,38.8,29.78,NW,315,6.0,9.2,81,2.59,,,1.30,WUHU216HW,2013-04-09 11:32:00,
2013-04-09 07:37:00,44.5,39.0,29.78,NW,315,7.8,9.2,81,2.59,,,1.30,WUHU216HW,2013-04-09 11:37:00,
2013-04-09 07:42:00,44.5,39.0,29.78,West,270,4.7,9.2,81,2.59,,,1.30,WUHU216HW,2013-04-09 11:42:00,
2013-04-09 07:47:00,44.5,39.0,29.78,WNW,293,4.0,9.2,81,2.59,,,1.30,WUHU216HW,2013-04-09 11:47:00,
2013-04-09 07:52:00,44.6,39.2,29.79,NW,315,6.3,8.5,81,2.59,,,1.30,WUHU216HW,2013-04-09 11:52:00,
2013-04-09 07:57:00,44.6,39.2,29.79,WNW,293,9.2,9.2,81,2.59,,,1.30,WUHU216HW,2013-04-09 11:57:00,
2013-04-09 08:02:00,44.6,39.2,29.79,West,270,4.5,9.4,81,2.59,,,1.46,WUHU216HW,2013-04-09 12:02:00,
2013-04-09 08:07:00,44.6,39.2,29.80,NNW,338,8.3,9.4,81,2.59,,,1.46,WUHU216HW,2013-04-09 12:07:00,
2013-04-09 08:12:00,44.6,39.2,29.80,WNW,293,4.9,8.7,81,2.59,,,1.46,WUHU216HW,2013-04-09 12:12:00,
2013-04-09 08:17:00,44.8,39.3,29.79,West,270,3.6,8.7,81,2.59,,,1.46,WUHU216HW,2013-04-09 12:17:00,
2013-04-09 08:22:00,45.0,39.5,29.79,NW,315,4.9,7.6,81,2.59,,,1.46,WUHU216HW,2013-04-09 12:22:00,
2013-04-09 08:28:00,45.2,39.7,29.79,WNW,293,6.3,10.1,81,2.59,,,1.46,WUHU216HW,2013-04-09 12:28:00,
2013-04-09 08:33:00,45.5,40.1,29.80,NW,315,5.4,10.1,81,2.59,,,1.46,WUHU216HW,2013-04-09 12:33:00,
2013-04-09 08:38:00,45.7,40.2,29.80,West,270,4.9,9.6,81,2.59,,,1.46,WUHU216HW,2013-04-09 12:38:00,
2013-04-09 08:43:00,46.3,40.8,29.80,WSW,248,5.1,8.7,81,2.59,,,1.46,WUHU216HW,2013-04-09 12:43:00,
2013-04-09 08:48:00,46.6,40.9,29.80,WNW,293,5.1,8.7,80,2.59,,,1.46,WUHU216HW,2013-04-09 12:48:00,
2013-04-09 08:53:00,47.0,41.1,29.80,NW,315,9.8,9.8,80,2.59,,,1.46,WUHU216HW,2013-04-09 12:53:00,
2013-04-09 08:58:00,46.8,40.7,29.80,NW,315,6.3,9.8,79,2.59,,,1.46,WUHU216HW,2013-04-09 12:58:00,
2013-04-09 09:03:00,47.0,40.9,29.80,WNW,293,7.8,9.8,79,2.59,,,1.63,WUHU216HW,2013-04-09 13:03:00,
2013-04-09 09:08:00,47.2,41.3,29.80,WSW,248,6.3,9.2,80,2.59,,,1.63,WUHU216HW,2013-04-09 13:08:00,
2013-04-09 09:13:00,47.2,41.3,29.80,West,270,6.0,9.2,80,2.59,,,1.63,WUHU216HW,2013-04-09 13:13:00,
2013-04-09 09:18:00,47.5,41.7,29.80,West,270,4.7,8.3,80,2.59,,,1.63,WUHU216HW,2013-04-09 13:18:00,
2013-04-09 09:23:00,47.9,41.7,29.81,NW,315,6.3,8.3,79,2.59,,,1.63,WUHU216HW,2013-04-09 13:23:00,
2013-04-09 09:28:00,48.1,41.8,29.81,WNW,293,4.5,7.6,79,2.59,,,1.63,WUHU216HW,2013-04-09 13:28:00,
2013-04-09 09:33:00,48.4,41.8,29.81,NW,315,4.7,7.6,78,2.59,,,1.63,WUHU216HW,2013-04-09 13:33:00,
2013-04-09 09:38:00,48.4,41.8,29.81,WNW,293,6.3,8.1,78,2.59,,,1.63,WUHU216HW,2013-04-09 13:38:00,
2013-04-09 09:43:00,48.4,41.8,29.81,WSW,248,4.9,8.1,78,2.59,,,1.63,WUHU216HW,2013-04-09 13:43:00,
2013-04-09 09:48:00,48.2,41.6,29.82,NW,315,8.7,8.7,78,2.59,,,1.63,WUHU216HW,2013-04-09 13:48:00,
2013-04-09 09:53:00,47.7,41.1,29.82,NW,315,3.4,8.7,78,2.59,,,1.63,WUHU216HW,2013-04-09 13:53:00,
2013-04-09 09:58:00,47.7,41.1,29.82,NW,315,8.3,8.7,78,2.59,,,1.63,WUHU216HW,2013-04-09 13:58:00,
2013-04-09 10:03:00,47.9,41.3,29.82,West,270,7.4,10.1,78,2.59,,,1.79,WUHU216HW,2013-04-09 14:03:00,
2013-04-09 10:08:00,47.9,41.3,29.82,NW,315,9.4,10.7,78,2.59,,,1.79,WUHU216HW,2013-04-09 14:08:00,
2013-04-09 10:13:00,48.1,41.5,29.82,West,270,5.4,10.7,78,2.59,,,1.79,WUHU216HW,2013-04-09 14:13:00,
2013-04-09 10:18:00,48.2,41.6,29.83,NW,315,6.9,9.8,78,2.59,,,1.79,WUHU216HW,2013-04-09 14:18:00,
2013-04-09 10:23:00,48.6,41.9,29.83,NW,315,2.0,8.5,78,2.59,,,1.79,WUHU216HW,2013-04-09 14:23:00,
2013-04-09 10:28:00,48.8,41.9,29.82,WNW,293,5.6,7.4,77,2.59,,,1.79,WUHU216HW,2013-04-09 14:28:00,
2013-04-09 10:33:00,49.1,42.2,29.82,NW,315,6.0,8.5,77,2.59,,,1.79,WUHU216HW,2013-04-09 14:33:00,
2013-04-09 10:38:00,49.3,42.0,29.83,NW,315,6.0,11.2,76,2.59,,,1.79,WUHU216HW,2013-04-09 14:38:00,
2013-04-09 10:43:00,49.9,42.6,29.82,WNW,293,5.4,11.2,76,2.59,,,1.79,WUHU216HW,2013-04-09 14:43:00,
2013-04-09 10:49:00,50.2,42.6,29.83,NW,315,5.6,10.3,75,2.59,,,1.79,WUHU216HW,2013-04-09 14:49:00,
2013-04-09 10:54:00,50.2,42.6,29.83,West,270,12.1,12.1,75,2.59,,,1.79,WUHU216HW,2013-04-09 14:54:00,
2013-04-09 10:59:00,50.0,42.0,29.82,NW,315,6.7,13.9,74,2.59,,,1.79,WUHU216HW,2013-04-09 14:59:00,
2013-04-09 11:04:00,50.0,42.0,29.82,WNW,293,7.6,13.9,74,2.59,,,1.95,WUHU216HW,2013-04-09 15:04:00,
2013-04-09 11:09:00,50.2,42.2,29.82,West,270,4.0,9.2,74,2.59,,,1.95,WUHU216HW,2013-04-09 15:09:00,
2013-04-09 11:14:00,50.4,42.4,29.82,NNE,23,4.0,7.6,74,2.59,,,1.95,WUHU216HW,2013-04-09 15:14:00,
2013-04-09 11:19:00,50.9,42.9,29.83,NW,315,9.2,9.2,74,2.59,,,1.95,WUHU216HW,2013-04-09 15:19:00,
2013-04-09 11:24:00,51.5,43.1,29.82,NNW,338,4.7,9.2,73,2.59,,,1.95,WUHU216HW,2013-04-09 15:24:00,
2013-04-09 11:29:00,51.5,42.9,29.81,WNW,293,4.3,9.2,72,2.59,,,1.95,WUHU216HW,2013-04-09 15:29:00,
2013-04-09 11:34:00,51.5,42.9,29.81,NW,315,4.0,9.2,72,2.59,,,1.95,WUHU216HW,2013-04-09 15:34:00,
2013-04-09 11:39:00,51.5,42.9,29.81,WNW,293,5.6,8.1,72,2.59,,,1.95,WUHU216HW,2013-04-09 15:39:00,
2013-04-09 11:44:00,52.0,43.3,29.80,West,270,3.4,8.1,72,2.59,,,1.95,WUHU216HW,2013-04-09 15:44:00,
2013-04-09 11:49:00,52.4,43.7,29.80,NW,315,3.4,5.8,72,2.59,,,1.95,WUHU216HW,2013-04-09 15:49:00,
2013-04-09 11:54:00,52.9,44.2,29.80,NW,315,2.2,4.5,72,2.59,,,1.95,WUHU216HW,2013-04-09 15:54:00,
2013-04-09 11:59:00,52.9,44.2,29.80,NW,315,3.8,6.3,72,2.59,,,1.95,WUHU216HW,2013-04-09 15:59:00,
2013-04-09 12:04:00,53.3,44.5,29.80,North,0,1.8,6.3,72,2.59,,,2.12,WUHU216HW,2013-04-09 16:04:00,
2013-04-09 12:09:00,53.5,44.3,29.79,North,0,0.9,5.8,71,2.59,,,2.12,WUHU216HW,2013-04-09 16:09:00,
2013-04-09 12:14:00,53.6,44.5,29.79,NNE,23,0.7,4.3,71,2.59,,,2.12,WUHU216HW,2013-04-09 16:14:00,
2013-04-09 12:19:00,53.8,44.3,29.79,NNW,338,3.4,4.5,70,2.59,,,2.12,WUHU216HW,2013-04-09 16:19:00,
2013-04-09 12:24:00,54.2,44.6,29.78,SE,135,0.4,4.5,70,2.59,,,2.12,WUHU216HW,2013-04-09 16:24:00,
2013-04-09 12:29:00,54.5,45.0,29.77,SW,225,0.4,3.4,70,2.59,,,2.12,WUHU216HW,2013-04-09 16:29:00,
2013-04-09 12:34:00,55.1,45.5,29.78,NNW,338,3.1,4.7,70,2.59,,,2.12,WUHU216HW,2013-04-09 16:34:00,
2013-04-09 12:39:00,55.8,45.8,29.78,WNW,293,3.4,5.4,69,2.59,,,2.12,WUHU216HW,2013-04-09 16:39:00,
2013-04-09 12:44:00,56.5,46.4,29.77,WSW,248,2.5,5.4,69,2.59,,,2.12,WUHU216HW,2013-04-09 16:44:00,
2013-04-09 12:49:00,56.9,46.5,29.77,West,270,1.6,4.0,68,2.59,,,2.12,WUHU216HW,2013-04-09 16:49:00,
2013-04-09 12:54:00,57.1,46.2,29.76,WNW,293,0.4,2.7,67,2.59,,,2.12,WUHU216HW,2013-04-09 16:54:00,
2013-04-09 13:00:00,56.9,46.0,29.76,NNW,338,2.0,2.2,67,2.59,,,2.12,WUHU216HW,2013-04-09 17:00:00,
2013-04-09 13:05:00,56.7,45.8,29.76,SE,135,1.1,2.0,67,2.59,,,2.28,WUHU216HW,2013-04-09 17:05:00,
2013-04-09 13:10:00,56.7,45.8,29.75,NNW,338,0.9,2.0,67,2.59,,,2.28,WUHU216HW,2013-04-09 17:10:00,
2013-04-09 13:15:00,57.2,46.4,29.75,NNW,338,2.7,3.8,67,2.59,,,2.28,WUHU216HW,2013-04-09 17:15:00,
2013-04-09 13:20:00,57.8,46.4,29.74,SSE,158,0.9,3.8,66,2.59,,,2.28,WUHU216HW,2013-04-09 17:20:00,
2013-04-09 13:25:00,58.9,47.5,29.74,North,0,0.7,3.8,66,2.59,,,2.28,WUHU216HW,2013-04-09 17:25:00,
2013-04-09 13:30:00,59.6,47.8,29.74,ENE,68,0.9,3.8,65,2.59,,,2.28,WUHU216HW,2013-04-09 17:30:00,
2013-04-09 13:35:00,60.1,48.3,29.74,NNW,338,0.2,1.8,65,2.59,,,2.28,WUHU216HW,2013-04-09 17:35:00,
2013-04-09 13:40:00,60.5,48.7,29.74,West,270,0.7,2.9,65,2.59,,,2.28,WUHU216HW,2013-04-09 17:40:00,
2013-04-09 13:45:00,60.8,49.1,29.74,ESE,113,1.1,2.9,65,2.59,,,2.28,WUHU216HW,2013-04-09 17:45:00,
2013-04-09 13:50:00,61.2,49.0,29.74,SSE,158,2.5,2.5,64,2.59,,,2.28,WUHU216HW,2013-04-09 17:50:00,
2013-04-09 13:55:00,61.9,49.2,29.74,WNW,293,0.7,4.0,63,2.59,,,2.28,WUHU216HW,2013-04-09 17:55:00,
2013-04-09 14:00:00,61.6,46.2,29.73,North,0,2.2,5.4,57,2.59,,,2.28,WUHU216HW,2013-04-09 18:00:00,
2013-04-09 14:05:00,61.4,47.0,29.73,NNW,338,2.5,6.5,59,2.59,,,2.44,WUHU216HW,2013-04-09 18:05:00,
2013-04-09 14:10:00,61.7,46.8,29.73,NW,315,2.7,6.5,58,2.59,,,2.44,WUHU216HW,2013-04-09 18:10:00,
2013-04-09 14:15:00,62.3,47.8,29.73,WNW,293,2.5,4.9,59,2.59,,,2.44,WUHU216HW,2013-04-09 18:15:00,
2013-04-09 14:20:00,62.5,48.0,29.73,NW,315,2.2,4.7,59,2.59,,,2.44,WUHU216HW,2013-04-09 18:20:00,
2013-04-09 14:25:00,63.7,48.2,29.74,ENE,68,1.8,4.7,57,2.59,,,2.44,WUHU216HW,2013-04-09 18:25:00,
2013-04-09 14:30:00,66.4,49.8,29.73,NNW,338,1.8,3.8,55,2.59,,,2.44,WUHU216HW,2013-04-09 18:30:00,
2013-04-09 14:35:00,67.9,50.6,29.73,NNE,23,0.4,3.8,54,2.59,,,2.44,WUHU216HW,2013-04-09 18:35:00,
2013-04-09 14:40:00,67.1,48.4,29.73,NW,315,2.5,4.3,51,2.59,,,2.44,WUHU216HW,2013-04-09 18:40:00,
2013-04-09 14:46:00,67.0,48.8,29.73,NE,45,0.4,4.3,52,2.59,,,2.44,WUHU216HW,2013-04-09 18:46:00,
2013-04-09 14:51:00,67.7,49.4,29.73,WNW,293,1.6,4.0,52,2.59,,,2.44,WUHU216HW,2013-04-09 18:51:00,
2013-04-09 14:55:00,67.5,48.3,29.73,NNW,338,1.8,5.4,50,2.59,,,2.44,WUHU216HW,2013-04-09 18:55:00,
2013-04-09 15:00:00,67.0,47.8,29.72,NNW,338,0.9,5.4,50,2.59,,,2.60,WUHU216HW,2013-04-09 19:00:00,
2013-04-09 15:05:00,67.1,48.4,29.71,NW,315,1.1,3.6,51,2.59,,,2.60,WUHU216HW,2013-04-09 19:05:00,
2013-04-09 15:10:00,67.5,48.8,29.71,North,0,0.2,3.4,51,2.59,,,2.60,WUHU216HW,2013-04-09 19:10:00,
2013-04-09 15:15:00,67.5,47.7,29.71,NE,45,1.3,3.4,49,2.59,,,2.60,WUHU216HW,2013-04-09 19:15:00,
2013-04-09 15:21:00,66.6,46.9,29.70,NNW,338,1.1,2.5,49,2.59,,,2.60,WUHU216HW,2013-04-09 19:21:00,
2013-04-09 15:26:00,66.6,46.9,29.70,NW,315,0.9,3.6,49,2.59,,,2.60,WUHU216HW,2013-04-09 19:26:00,
2013-04-09 15:31:00,66.6,47.5,29.70,NW,315,0.4,3.6,50,2.59,,,2.60,WUHU216HW,2013-04-09 19:31:00,
2013-04-09 15:36:00,67.0,47.8,29.70,NW,315,0.7,2.0,50,2.59,,,2.60,WUHU216HW,2013-04-09 19:36:00,
2013-04-09 15:41:00,66.8,47.1,29.70,NW,315,2.5,3.6,49,2.59,,,2.60,WUHU216HW,2013-04-09 19:41:00,
2013-04-09 15:46:00,66.6,46.9,29.70,NNW,338,2.2,3.6,49,2.59,,,2.60,WUHU216HW,2013-04-09 19:46:00,
2013-04-09 15:51:00,65.9,45.6,29.69,NNW,338,1.1,4.0,48,2.59,,,2.60,WUHU216HW,2013-04-09 19:51:00,
2013-04-09 15:56:00,65.5,45.3,29.68,NNW,338,2.5,4.9,48,2.59,,,2.60,WUHU216HW,2013-04-09 19:56:00,
2013-04-09 16:01:00,65.2,45.6,29.68,NNW,338,2.5,4.9,49,2.59,,,2.77,WUHU216HW,2013-04-09 20:01:00,
2013-04-09 16:06:00,65.0,45.4,29.68,NNW,338,2.9,4.5,49,2.59,,,2.77,WUHU216HW,2013-04-09 20:06:00,
2013-04-09 16:11:00,64.6,44.4,29.69,NNW,338,2.9,5.1,48,2.59,,,2.77,WUHU216HW,2013-04-09 20:11:00,
2013-04-09 16:16:00,64.1,44.5,29.69,NW,315,3.4,5.1,49,2.59,,,2.77,WUHU216HW,2013-04-09 20:16:00,
2013-04-09 16:21:00,63.7,44.1,29.69,NNW,338,1.3,4.7,49,2.59,,,2.77,WUHU216HW,2013-04-09 20:21:00,
2013-04-09 16:26:00,63.4,44.4,29.69,NNW,338,0.0,2.9,50,2.59,,,2.77,WUHU216HW,2013-04-09 20:26:00,
2013-04-09 16:31:00,63.2,44.2,29.69,NW,315,0.7,2.9,50,2.59,,,2.77,WUHU216HW,2013-04-09 20:31:00,
2013-04-09 16:36:00,62.8,43.9,29.70,SE,135,0.9,2.0,50,2.59,,,2.77,WUHU216HW,2013-04-09 20:36:00,
2013-04-09 16:41:00,62.5,44.1,29.70,NW,315,1.8,2.7,51,2.59,,,2.77,WUHU216HW,2013-04-09 20:41:00,
2013-04-09 16:46:00,62.3,43.9,29.70,NW,315,1.1,3.4,51,2.59,,,2.77,WUHU216HW,2013-04-09 20:46:00,
2013-04-09 16:51:00,62.1,44.7,29.70,North,0,1.1,3.4,53,2.59,,,2.77,WUHU216HW,2013-04-09 20:51:00,
2013-04-09 16:56:00,61.9,45.0,29.70,NNW,338,1.1,2.9,54,2.59,,,2.77,WUHU216HW,2013-04-09 20:56:00,
2013-04-09 17:01:00,61.7,45.4,29.69,East,90,1.8,2.5,55,2.59,,,2.93,WUHU216HW,2013-04-09 21:01:00,
2013-04-09 17:06:00,61.6,45.2,29.69,ENE,68,3.6,6.3,55,2.59,,,2.93,WUHU216HW,2013-04-09 21:06:00,
2013-04-09 17:12:00,61.4,45.6,29.68,ENE,68,1.1,6.3,56,2.59,,,2.93,WUHU216HW,2013-04-09 21:12:00,
2013-04-09 17:17:00,61.2,44.9,29.68,ENE,68,2.5,4.7,55,2.59,,,2.93,WUHU216HW,2013-04-09 21:17:00,
2013-04-09 17:22:00,60.8,44.6,29.68,NE,45,3.8,5.8,55,2.59,,,2.93,WUHU216HW,2013-04-09 21:22:00,
2013-04-09 17:27:00,60.7,44.8,29.68,NE,45,5.4,6.5,56,2.59,,,2.93,WUHU216HW,2013-04-09 21:27:00,
2013-04-09 17:32:00,60.3,44.6,29.68,NE,45,3.6,6.9,56,2.59,,,2.93,WUHU216HW,2013-04-09 21:32:00,
2013-04-09 17:37:00,60.1,44.8,29.68,ENE,68,2.5,6.9,57,2.59,,,2.93,WUHU216HW,2013-04-09 21:37:00,
2013-04-09 17:42:00,59.6,44.7,29.68,ENE,68,2.7,6.9,58,2.59,,,2.93,WUHU216HW,2013-04-09 21:42:00,
2013-04-09 17:47:00,59.2,44.9,29.68,NNE,23,1.8,6.9,59,2.59,,,2.93,WUHU216HW,2013-04-09 21:47:00,
2013-04-09 17:52:00,59.0,44.7,29.66,ENE,68,6.3,6.3,59,2.59,,,2.93,WUHU216HW,2013-04-09 21:52:00,
2013-04-09 17:57:00,58.9,44.6,29.66,ENE,68,5.1,8.7,59,2.59,,,2.93,WUHU216HW,2013-04-09 21:57:00,
2013-04-09 18:02:00,58.7,44.4,29.67,NE,45,1.1,8.7,59,2.59,,,3.09,WUHU216HW,2013-04-09 22:02:00,
2013-04-09 18:07:00,58.7,44.4,29.66,East,90,2.7,5.1,59,2.59,,,3.09,WUHU216HW,2013-04-09 22:07:00,
2013-04-09 18:12:00,58.7,44.4,29.65,ESE,113,3.8,5.6,59,2.59,,,3.09,WUHU216HW,2013-04-09 22:12:00,
2013-04-09 18:17:00,58.5,44.7,29.65,ESE,113,2.5,6.9,60,2.59,,,3.09,WUHU216HW,2013-04-09 22:17:00,
2013-04-09 18:22:00,58.3,44.6,29.66,NE,45,1.1,6.9,60,2.59,,,3.09,WUHU216HW,2013-04-09 22:22:00,
2013-04-09 18:27:00,58.3,44.9,29.66,SE,135,6.0,6.0,61,2.59,,,3.09,WUHU216HW,2013-04-09 22:27:00,
2013-04-09 18:32:00,58.1,45.2,29.66,ENE,68,4.7,8.9,62,2.59,,,3.09,WUHU216HW,2013-04-09 22:32:00,
2013-04-09 18:37:00,58.0,45.5,29.66,East,90,5.1,8.9,63,2.59,,,3.09,WUHU216HW,2013-04-09 22:37:00,
2013-04-09 18:42:00,57.6,45.9,29.66,ESE,113,4.7,8.7,65,2.59,,,3.09,WUHU216HW,2013-04-09 22:42:00,
2013-04-09 18:47:00,56.9,45.2,29.66,ENE,68,4.3,8.7,65,2.59,,,3.09,WUHU216HW,2013-04-09 22:47:00,
2013-04-09 18:52:00,56.0,46.0,29.70,NNW,338,3.6,8.7,69,2.59,,,3.09,WUHU216HW,2013-04-09 22:52:00,
2013-04-09 18:57:00,54.5,45.7,29.72,NW,315,7.4,7.4,72,2.60,,,3.10,WUHU216HW,2013-04-09 22:57:00,
2013-04-09 19:02:00,53.1,44.6,29.72,NE,45,7.2,11.0,73,2.62,,,3.33,WUHU216HW,2013-04-09 23:02:00,
2013-04-09 19:07:00,52.6,44.2,29.68,East,90,6.9,11.0,73,2.62,,,3.33,WUHU216HW,2013-04-09 23:07:00,
2013-04-09 19:12:00,52.0,44.0,29.68,ESE,113,6.0,10.5,74,2.63,,,3.33,WUHU216HW,2013-04-09 23:12:00,
2013-04-09 19:17:00,51.8,43.8,29.68,ENE,68,6.0,8.9,74,2.64,,,3.35,WUHU216HW,2013-04-09 23:17:00,
2013-04-09 19:22:00,51.8,44.2,29.67,East,90,8.5,9.2,75,2.64,,,3.35,WUHU216HW,2013-04-09 23:22:00,
2013-04-09 19:27:00,51.3,44.0,29.67,SE,135,6.3,10.5,76,2.64,,,3.35,WUHU216HW,2013-04-09 23:27:00,
2013-04-09 19:32:00,50.8,43.8,29.67,SE,135,5.6,10.5,77,2.65,,,3.35,WUHU216HW,2013-04-09 23:32:00,
2013-04-09 19:37:00,50.6,43.7,29.66,ENE,68,5.1,10.1,77,2.65,,,3.35,WUHU216HW,2013-04-09 23:37:00,
2013-04-09 19:42:00,50.4,43.7,29.65,ESE,113,7.2,9.8,78,2.65,,,3.35,WUHU216HW,2013-04-09 23:42:00,
2013-04-09 19:47:00,50.0,43.7,29.65,East,90,7.4,9.8,79,2.65,,,3.35,WUHU216HW,2013-04-09 23:47:00,
2013-04-09 19:52:00,49.9,43.6,29.66,ENE,68,2.7,9.2,79,2.64,,,3.35,WUHU216HW,2013-04-09 23:52:00,
2013-04-09 19:57:00,49.5,43.8,29.72,ENE,68,1.3,9.2,81,2.63,,,3.37,WUHU216HW,2013-04-09 23:57:00,
2013-04-09 20:03:00,49.3,43.7,29.65,SSE,158,8.1,8.1,81,2.63,,,3.63,WUHU216HW,2013-04-10 00:03:00,
2013-04-09 20:08:00,49.1,43.8,29.64,ESE,113,4.9,9.6,82,2.62,,,3.63,WUHU216HW,2013-04-10 00:08:00,
2013-04-09 20:13:00,48.8,43.5,29.68,ENE,68,2.9,9.6,82,2.62,,,3.63,WUHU216HW,2013-04-10 00:13:00,
2013-04-09 20:18:00,48.6,43.7,29.65,ESE,113,3.4,7.6,83,2.61,,,3.63,WUHU216HW,2013-04-10 00:18:00,
2013-04-09 20:23:00,48.6,43.7,29.64,SE,135,4.9,7.6,83,2.61,,,3.63,WUHU216HW,2013-04-10 00:23:00,
2013-04-09 20:28:00,48.6,43.9,29.62,SE,135,6.3,7.6,84,2.61,,,3.63,WUHU216HW,2013-04-10 00:28:00,
2013-04-09 20:33:00,48.6,43.7,29.63,East,90,2.9,8.1,83,2.61,,,3.64,WUHU216HW,2013-04-10 00:33:00,
2013-04-09 20:38:00,48.6,43.7,29.64,SE,135,4.7,8.1,83,2.63,,,3.66,WUHU216HW,2013-04-10 00:38:00,
2013-04-09 20:43:00,48.6,43.9,29.59,South,180,9.2,12.1,84,2.64,,,3.67,WUHU216HW,2013-04-10 00:43:00,
2013-04-09 20:48:00,48.6,44.3,29.61,NNE,23,3.8,12.1,85,2.65,,,3.68,WUHU216HW,2013-04-10 00:48:00,
2013-04-09 20:53:00,48.6,44.3,29.63,ENE,68,3.1,10.1,85,2.68,,,3.71,WUHU216HW,2013-04-10 00:53:00,
2013-04-09 20:58:00,48.6,44.3,29.60,East,90,6.9,9.2,85,2.70,,,3.73,WUHU216HW,2013-04-10 00:58:00,
2013-04-09 21:02:00,48.6,44.6,29.63,NE,45,4.7,9.2,86,2.70,,,4.12,WUHU216HW,2013-04-10 01:02:00,
2013-04-09 21:07:00,48.4,44.4,29.63,East,90,5.4,9.2,86,2.77,,,4.20,WUHU216HW,2013-04-10 01:07:00,
2013-04-09 21:12:00,48.2,44.3,29.64,East,90,3.6,9.2,86,2.94,,,4.38,WUHU216HW,2013-04-10 01:12:00,
2013-04-09 21:17:00,48.2,44.3,29.64,ESE,113,4.0,8.5,86,3.02,,,4.45,WUHU216HW,2013-04-10 01:17:00,
2013-04-09 21:22:00,48.2,44.3,29.62,ESE,113,11.0,11.0,86,3.05,,,4.48,WUHU216HW,2013-04-10 01:22:00,
2013-04-09 21:28:00,48.2,44.3,29.62,ESE,113,8.9,11.9,86,3.08,,,4.52,WUHU216HW,2013-04-10 01:28:00,
2013-04-09 21:33:00,48.1,44.1,29.64,ESE,113,7.2,11.9,86,3.08,,,4.54,WUHU216HW,2013-04-10 01:33:00,
2013-04-09 21:38:00,48.1,44.4,29.64,ESE,113,8.3,9.4,87,3.10,,,4.56,WUHU216HW,2013-04-10 01:38:00,
2013-04-09 21:43:00,48.2,44.3,29.66,ESE,113,2.5,9.2,86,3.17,,,4.65,WUHU216HW,2013-04-10 01:43:00,
2013-04-09 21:48:00,48.1,44.4,29.67,ESE,113,3.8,8.5,87,3.24,,,4.75,WUHU216HW,2013-04-10 01:48:00,
2013-04-09 21:53:00,48.2,44.6,29.65,SE,135,5.4,7.6,87,3.35,,,4.88,WUHU216HW,2013-04-10 01:53:00,
2013-04-09 21:58:00,48.2,44.6,29.65,SSE,158,3.4,7.6,87,3.36,,,4.91,WUHU216HW,2013-04-10 01:58:00,
2013-04-09 22:03:00,48.2,44.6,29.65,South,180,3.8,6.9,87,0.83,,,4.97,WUHU216HW,2013-04-10 02:03:00,
2013-04-09 22:08:00,48.2,44.6,29.65,ESE,113,4.5,6.5,87,0.80,,,5.02,WUHU216HW,2013-04-10 02:08:00,
2013-04-09 22:13:00,48.4,44.7,29.65,SSW,203,3.1,6.5,87,0.61,,,5.06,WUHU216HW,2013-04-10 02:13:00,
2013-04-09 22:18:00,48.6,44.9,29.66,South,180,1.8,4.7,87,0.61,,,5.08,WUHU216HW,2013-04-10 02:18:00,
2013-04-09 22:23:00,48.6,44.9,29.63,SE,135,3.8,5.8,87,0.61,,,5.10,WUHU216HW,2013-04-10 02:23:00,
2013-04-09 22:28:00,48.6,44.9,29.62,SSW,203,5.4,5.8,87,0.60,,,5.12,WUHU216HW,2013-04-10 02:28:00,
2013-04-09 22:33:00,48.8,45.4,29.60,SSE,158,4.3,5.8,88,0.59,,,5.14,WUHU216HW,2013-04-10 02:33:00,
2013-04-09 22:38:00,48.8,45.4,29.59,SE,135,6.3,6.3,88,0.55,,,5.14,WUHU216HW,2013-04-10 02:38:00,
2013-04-09 22:43:00,49.0,45.5,29.60,ENE,68,2.7,6.3,88,0.49,,,5.14,WUHU216HW,2013-04-10 02:43:00,
2013-04-09 22:48:00,49.1,45.7,29.61,South,180,4.3,6.3,88,0.28,,,5.14,WUHU216HW,2013-04-10 02:48:00,
2013-04-09 22:53:00,49.3,45.9,29.62,NE,45,0.9,6.3,88,0.24,,,5.14,WUHU216HW,2013-04-10 02:53:00,
2013-04-09 22:58:00,49.5,46.1,29.61,SE,135,2.5,4.3,88,0.22,,,5.14,WUHU216HW,2013-04-10 02:58:00,
2013-04-09 23:03:00,49.7,46.3,29.62,SSE,158,0.4,2.9,88,2.74,,,5.37,WUHU216HW,2013-04-10 03:03:00,
2013-04-09 23:08:00,49.7,46.3,29.61,ESE,113,1.6,2.9,88,2.68,,,5.37,WUHU216HW,2013-04-10 03:08:00,
2013-04-09 23:13:00,49.9,46.4,29.61,ENE,68,1.1,2.9,88,2.66,,,5.37,WUHU216HW,2013-04-10 03:13:00,
2013-04-09 23:18:00,49.9,46.1,29.61,SSW,203,1.1,2.2,87,2.64,,,5.37,WUHU216HW,2013-04-10 03:18:00,
2013-04-09 23:23:00,50.0,46.3,29.61,SSE,158,0.4,2.0,87,2.63,,,5.37,WUHU216HW,2013-04-10 03:23:00,
2013-04-09 23:28:00,50.2,46.5,29.61,East,90,1.8,1.8,87,2.59,,,5.37,WUHU216HW,2013-04-10 03:28:00,
2013-04-09 23:33:00,50.4,46.6,29.61,ENE,68,1.8,2.9,87,2.59,,,5.37,WUHU216HW,2013-04-10 03:33:00,
2013-04-09 23:38:00,50.4,46.6,29.61,NE,45,1.8,2.9,87,2.59,,,5.37,WUHU216HW,2013-04-10 03:38:00,
2013-04-09 23:43:00,50.2,46.5,29.61,East,90,2.0,2.7,87,2.59,,,5.37,WUHU216HW,2013-04-10 03:43:00,
2013-04-09 23:48:00,50.2,46.1,29.60,ENE,68,2.0,3.4,86,2.59,,,5.37,WUHU216HW,2013-04-10 03:48:00,
2013-04-09 23:53:00,50.2,46.1,29.61,East,90,2.5,3.4,86,2.59,,,5.37,WUHU216HW,2013-04-10 03:53:00,
2013-04-09 23:58:00,50.2,46.5,29.62,NE,45,0.4,2.5,87,2.59,,,5.37,WUHU216HW,2013-04-10 03:58:00,